Wetterdaten: Woche 03.06.02 - 09.06.02 (KW23)
Datum Zeit Temperatur Luftfeuchte Luftdruck Regenmenge Wind Richtung Taupunkt Windchill
03.06.2002 00:00 15.0 C 70 % 1015.9 hPa 0.0 l/m 0.1 km/h (0 Bft) N 9.6 C 15.0 C
03.06.2002 01:00 13.9 C 70 % 1015.9 hPa 0.0 l/m 1.6 km/h (1 Bft) O-SO 8.5 C 13.9 C
03.06.2002 02:00 12.7 C 74 % 1014.9 hPa 0.0 l/m 3.0 km/h (1 Bft) O-SO 8.3 C 12.7 C
03.06.2002 03:00 11.3 C 80 % 1014.9 hPa 0.0 l/m 0.7 km/h (0 Bft) O-SO 7.9 C 11.3 C
03.06.2002 04:00 10.2 C 83 % 1014.9 hPa 0.0 l/m 1.5 km/h (1 Bft) O-SO 7.5 C 10.2 C
03.06.2002 05:00 9.3 C 89 % 1014.9 hPa 0.0 l/m 2.0 km/h (1 Bft) O-SO 7.6 C 9.0 C
03.06.2002 06:00 10.2 C 88 % 1014.9 hPa 0.0 l/m 0.2 km/h (0 Bft) N 8.2 C 10.2 C
03.06.2002 07:00 12.1 C 80 % 1014.8 hPa 0.0 l/m 0.0 km/h (0 Bft) N 8.8 C 12.1 C
03.06.2002 08:00 13.6 C 72 % 1013.9 hPa 0.0 l/m 0.6 km/h (0 Bft) W-NW 8.6 C 13.6 C
03.06.2002 09:00 15.7 C 62 % 1013.9 hPa 0.0 l/m 0.9 km/h (0 Bft) SO 8.3 C 15.7 C
03.06.2002 10:00 17.3 C 59 % 1013.7 hPa 0.0 l/m 3.0 km/h (1 Bft) O-SO 9.1 C 17.3 C
03.06.2002 11:00 18.2 C 56 % 1012.9 hPa 0.0 l/m 7.3 km/h (2 Bft) O-SO 9.3 C 18.2 C
03.06.2002 12:00 20.5 C 52 % 1012.8 hPa 0.0 l/m 3.3 km/h (1 Bft) O-SO 10.3 C 20.5 C
03.06.2002 13:00 20.1 C 56 % 1012.8 hPa 0.0 l/m 1.6 km/h (1 Bft) W-NW 10.9 C 20.1 C
03.06.2002 14:00 20.5 C 58 % 1012.2 hPa 0.0 l/m 0.6 km/h (0 Bft) W 11.8 C 20.5 C
03.06.2002 15:00 20.0 C 63 % 1012.6 hPa 0.0 l/m 9.0 km/h (2 Bft) NW 12.7 C 20.0 C
03.06.2002 16:00 19.2 C 72 % 1012.6 hPa 0.0 l/m 1.5 km/h (1 Bft) SO 14.0 C 19.2 C
03.06.2002 17:00 18.3 C 76 % 1011.9 hPa 0.0 l/m 6.4 km/h (2 Bft) SO 14.1 C 18.3 C
03.06.2002 18:00 17.6 C 79 % 1011.8 hPa 0.0 l/m 2.2 km/h (1 Bft) SO 14.0 C 17.6 C
03.06.2002 19:00 17.2 C 85 % 1011.8 hPa 1.8 l/m 0.0 km/h (0 Bft) N 14.6 C 17.2 C
03.06.2002 20:00 16.5 C 96 % 1011.8 hPa 3.3 l/m 0.0 km/h (0 Bft) SO 15.8 C 16.5 C
03.06.2002 21:00 15.9 C 100 % 1011.8 hPa 0.0 l/m 0.1 km/h (0 Bft) N 15.8 C 15.9 C
03.06.2002 22:00 15.0 C 100 % 1011.8 hPa 0.0 l/m 0.3 km/h (0 Bft) SO 15.0 C 15.0 C
03.06.2002 23:00 14.2 C 100 % 1011.8 hPa 0.0 l/m 2.6 km/h (1 Bft) O-SO 14.2 C 14.2 C
04.06.2002 00:00 13.4 C 100 % 1011.8 hPa 0.0 l/m 1.8 km/h (1 Bft) O-SO 13.4 C 13.4 C
04.06.2002 01:00 13.5 C 100 % 1012.4 hPa 0.0 l/m 0.4 km/h (0 Bft) O-SO 13.5 C 13.5 C
04.06.2002 02:00 13.8 C 100 % 1011.8 hPa 0.0 l/m 2.0 km/h (1 Bft) SO 13.8 C 13.8 C
04.06.2002 03:00 14.1 C 100 % 1011.8 hPa 5.7 l/m 3.0 km/h (1 Bft) SO 14.1 C 14.1 C
04.06.2002 04:00 14.3 C 100 % 1011.8 hPa 0.0 l/m 0.4 km/h (0 Bft) SO 14.3 C 14.3 C
04.06.2002 05:00 14.5 C 100 % 1011.8 hPa 0.0 l/m 1.1 km/h (1 Bft) SO 14.5 C 14.5 C
04.06.2002 06:00 14.6 C 100 % 1011.8 hPa 0.0 l/m 0.6 km/h (0 Bft) O-SO 14.6 C 14.6 C
04.06.2002 07:00 15.1 C 100 % 1011.3 hPa 0.0 l/m 0.0 km/h (0 Bft) N 15.1 C 15.1 C
04.06.2002 08:00 15.9 C 100 % 1010.8 hPa 0.0 l/m 0.0 km/h (0 Bft) N 15.9 C 15.9 C
04.06.2002 09:00 17.0 C 93 % 1010.8 hPa 0.0 l/m 0.9 km/h (0 Bft) O-SO 15.8 C 17.0 C
04.06.2002 10:00 18.3 C 88 % 1010.0 hPa 0.0 l/m 1.4 km/h (1 Bft) O-SO 16.3 C 18.3 C
04.06.2002 11:00 20.0 C 80 % 1009.7 hPa 0.0 l/m 1.5 km/h (1 Bft) SO 16.4 C 20.0 C
04.06.2002 12:00 22.2 C 72 % 1008.7 hPa 0.0 l/m 2.0 km/h (1 Bft) O-SO 16.8 C 22.2 C
04.06.2002 13:00 24.1 C 60 % 1008.7 hPa 0.0 l/m 10.3 km/h (2 Bft) O-SO 15.8 C 24.1 C
04.06.2002 14:00 25.8 C 52 % 1007.9 hPa 0.0 l/m 13.1 km/h (3 Bft) O-SO 15.0 C 25.8 C
04.06.2002 15:00 25.5 C 51 % 1006.7 hPa 0.0 l/m 12.5 km/h (3 Bft) O-SO 14.7 C 25.5 C
04.06.2002 16:00 23.6 C 60 % 1006.0 hPa 0.0 l/m 1.7 km/h (1 Bft) O-SO 15.5 C 23.6 C
04.06.2002 17:00 23.5 C 62 % 1005.6 hPa 0.0 l/m 0.0 km/h (0 Bft) N 15.7 C 23.5 C
04.06.2002 18:00 21.5 C 77 % 1005.6 hPa 0.0 l/m 0.0 km/h (0 Bft) N 17.4 C 21.5 C
04.06.2002 19:00 20.9 C 77 % 1004.9 hPa 0.0 l/m 0.3 km/h (0 Bft) O 16.7 C 20.9 C
04.06.2002 20:00 20.0 C 84 % 1004.5 hPa 0.0 l/m 0.8 km/h (0 Bft) O-SO 17.2 C 20.0 C
04.06.2002 21:00 18.8 C 83 % 1004.5 hPa 0.0 l/m 3.4 km/h (1 Bft) O-SO 15.9 C 18.8 C
04.06.2002 22:00 17.8 C 88 % 1003.8 hPa 0.0 l/m 1.8 km/h (1 Bft) O-SO 15.7 C 17.8 C
04.06.2002 23:00 16.9 C 92 % 1003.4 hPa 0.0 l/m 1.3 km/h (1 Bft) O-SO 15.5 C 16.9 C
05.06.2002 00:00 16.1 C 94 % 1001.9 hPa 0.0 l/m 0.7 km/h (0 Bft) O-SO 15.0 C 16.1 C
05.06.2002 01:00 15.2 C 96 % 1000.9 hPa 0.0 l/m 0.1 km/h (0 Bft) N 14.7 C 15.2 C
05.06.2002 02:00 15.0 C 98 % 999.8 hPa 0.0 l/m 1.7 km/h (1 Bft) O-SO 14.7 C 15.0 C
05.06.2002 03:00 15.0 C 100 % 998.2 hPa 0.0 l/m 0.3 km/h (0 Bft) O 14.9 C 15.0 C
05.06.2002 04:00 15.0 C 96 % 997.5 hPa 0.0 l/m 1.3 km/h (1 Bft) O-SO 14.4 C 15.0 C
05.06.2002 05:00 15.6 C 88 % 996.6 hPa 0.0 l/m 3.3 km/h (1 Bft) O-SO 13.5 C 15.6 C
05.06.2002 06:00 16.7 C 78 % 996.5 hPa 0.0 l/m 7.8 km/h (2 Bft) O-SO 12.7 C 16.7 C
05.06.2002 07:00 17.1 C 75 % 995.6 hPa 0.0 l/m 2.3 km/h (1 Bft) O-SO 12.6 C 17.1 C
05.06.2002 08:00 18.2 C 74 % 995.2 hPa 0.0 l/m 0.5 km/h (0 Bft) S 13.5 C 18.2 C
05.06.2002 09:00 18.3 C 78 % 995.2 hPa 0.0 l/m 0.1 km/h (0 Bft) O-SO 14.3 C 18.3 C
05.06.2002 10:00 20.1 C 67 % 995.2 hPa 0.0 l/m 13.8 km/h (3 Bft) W-NW 13.9 C 20.1 C
05.06.2002 11:00 20.3 C 67 % 995.8 hPa 0.0 l/m 14.4 km/h (3 Bft) W-NW 14.1 C 20.3 C
05.06.2002 12:00 19.6 C 72 % 997.1 hPa 0.3 l/m 13.6 km/h (3 Bft) NW 14.2 C 19.6 C
05.06.2002 13:00 18.8 C 80 % 997.8 hPa 0.0 l/m 16.0 km/h (3 Bft) NW 15.3 C 18.8 C
05.06.2002 14:00 19.8 C 74 % 997.9 hPa 0.0 l/m 17.4 km/h (3 Bft) NW 15.0 C 19.8 C
05.06.2002 15:00 18.4 C 68 % 999.7 hPa 0.0 l/m 22.7 km/h (4 Bft) NW 12.3 C 18.4 C
05.06.2002 16:00 19.3 C 65 % 1000.4 hPa 0.0 l/m 10.8 km/h (2 Bft) W-NW 12.5 C 19.3 C
05.06.2002 17:00 18.4 C 67 % 1001.3 hPa 0.0 l/m 11.7 km/h (2 Bft) NW 12.1 C 18.4 C
05.06.2002 18:00 16.9 C 80 % 1002.0 hPa 0.6 l/m 5.5 km/h (1 Bft) NW 13.3 C 16.9 C
05.06.2002 19:00 15.1 C 94 % 1002.5 hPa 0.0 l/m 0.6 km/h (0 Bft) W 14.1 C 15.1 C
05.06.2002 20:00 14.8 C 93 % 1002.5 hPa 0.3 l/m 2.7 km/h (1 Bft) O-SO 13.7 C 14.8 C
05.06.2002 21:00 14.2 C 96 % 1002.6 hPa 0.0 l/m 0.7 km/h (0 Bft) SO 13.6 C 14.2 C
05.06.2002 22:00 13.7 C 99 % 1002.5 hPa 0.0 l/m 3.4 km/h (1 Bft) SO 13.5 C 13.7 C
05.06.2002 23:00 13.5 C 99 % 1003.5 hPa 0.3 l/m 5.7 km/h (1 Bft) O-SO 13.2 C 13.5 C
06.06.2002 00:00 13.4 C 98 % 1003.5 hPa 0.9 l/m 0.0 km/h (0 Bft) N 13.1 C 13.4 C
06.06.2002 01:00 13.3 C 100 % 1003.5 hPa 0.6 l/m 0.7 km/h (0 Bft) SO 13.3 C 13.3 C
06.06.2002 02:00 13.0 C 100 % 1003.3 hPa 0.0 l/m 1.2 km/h (1 Bft) SO 13.0 C 13.0 C
06.06.2002 03:00 12.6 C 100 % 1002.5 hPa 0.0 l/m 0.1 km/h (0 Bft) SO 12.6 C 12.6 C
06.06.2002 04:00 12.3 C 100 % 1002.5 hPa 0.0 l/m 1.2 km/h (1 Bft) SO 12.3 C 12.3 C
06.06.2002 05:00 12.2 C 100 % 1002.5 hPa 0.0 l/m 2.3 km/h (1 Bft) SO 12.2 C 12.2 C
06.06.2002 06:00 12.5 C 100 % 1001.7 hPa 0.0 l/m 0.6 km/h (0 Bft) O-SO 12.5 C 12.5 C
06.06.2002 07:00 13.2 C 100 % 1001.4 hPa 0.0 l/m 0.0 km/h (0 Bft) N 13.2 C 13.2 C
06.06.2002 08:00 14.2 C 95 % 1001.4 hPa 0.0 l/m 0.1 km/h (0 Bft) N 13.4 C 14.2 C
06.06.2002 09:00 15.2 C 89 % 1001.4 hPa 0.0 l/m 0.6 km/h (0 Bft) SO 13.4 C 15.2 C
06.06.2002 10:00 16.7 C 81 % 1000.5 hPa 0.0 l/m 1.2 km/h (1 Bft) SO 13.4 C 16.7 C
06.06.2002 11:00 17.4 C 79 % 1000.1 hPa 0.0 l/m 2.0 km/h (1 Bft) O-SO 13.7 C 17.4 C
06.06.2002 12:00 20.0 C 66 % 999.4 hPa 0.0 l/m 6.1 km/h (2 Bft) O-SO 13.4 C 20.0 C
06.06.2002 13:00 20.3 C 62 % 999.2 hPa 0.0 l/m 2.9 km/h (1 Bft) W-NW 12.7 C 20.3 C
06.06.2002 14:00 21.9 C 56 % 998.3 hPa 0.0 l/m 4.9 km/h (1 Bft) O-SO 12.8 C 21.9 C
06.06.2002 15:00 23.3 C 48 % 998.3 hPa 0.0 l/m 3.3 km/h (1 Bft) O-SO 11.7 C 23.3 C
06.06.2002 16:00 22.4 C 53 % 997.3 hPa 0.0 l/m 8.4 km/h (2 Bft) W-NW 12.5 C 22.4 C
06.06.2002 17:00 23.9 C 53 % 997.1 hPa 0.0 l/m 17.8 km/h (3 Bft) W-NW 13.7 C 23.9 C
06.06.2002 18:00 22.6 C 50 % 997.0 hPa 0.0 l/m 11.7 km/h (2 Bft) NW 11.5 C 22.6 C
06.06.2002 19:00 20.9 C 55 % 997.5 hPa 0.0 l/m 4.8 km/h (1 Bft) O-SO 11.5 C 20.9 C
06.06.2002 20:00 16.0 C 76 % 998.3 hPa 0.3 l/m 13.5 km/h (3 Bft) O-SO 11.7 C 16.0 C
06.06.2002 21:00 15.1 C 86 % 999.2 hPa 0.0 l/m 1.2 km/h (1 Bft) N-NO 12.9 C 15.1 C
06.06.2002 22:00 14.9 C 89 % 999.4 hPa 0.0 l/m 1.4 km/h (1 Bft) SO 13.2 C 14.9 C
06.06.2002 23:00 14.0 C 91 % 1000.0 hPa 0.0 l/m 6.2 km/h (2 Bft) O-SO 12.6 C 14.0 C
07.06.2002 00:00 14.4 C 90 % 1000.9 hPa 0.0 l/m 2.5 km/h (1 Bft) SO 12.8 C 14.4 C
07.06.2002 01:00 14.4 C 82 % 1001.4 hPa 0.0 l/m 1.7 km/h (1 Bft) NW 11.4 C 14.4 C
07.06.2002 02:00 14.2 C 82 % 1001.4 hPa 0.0 l/m 11.0 km/h (2 Bft) W-NW 11.3 C 14.2 C
07.06.2002 03:00 14.0 C 88 % 1001.4 hPa 0.9 l/m 7.9 km/h (2 Bft) NW 12.0 C 14.0 C
07.06.2002 04:00 12.9 C 96 % 1002.0 hPa 1.2 l/m 13.3 km/h (3 Bft) NW 12.3 C 12.9 C
07.06.2002 05:00 12.4 C 97 % 1002.6 hPa 0.3 l/m 27.9 km/h (4 Bft) NW 11.9 C 12.4 C
07.06.2002 06:00 12.1 C 96 % 1003.7 hPa 0.0 l/m 15.6 km/h (3 Bft) NW 11.5 C 12.1 C
07.06.2002 07:00 11.9 C 95 % 1004.5 hPa 0.3 l/m 17.8 km/h (3 Bft) NW 11.1 C 11.9 C
07.06.2002 08:00 11.8 C 93 % 1005.6 hPa 0.0 l/m 23.2 km/h (4 Bft) NW 10.8 C 11.8 C
07.06.2002 09:00 11.9 C 91 % 1006.6 hPa 0.0 l/m 20.5 km/h (4 Bft) NW 10.5 C 11.9 C
07.06.2002 10:00 12.4 C 87 % 1007.3 hPa 0.0 l/m 20.5 km/h (4 Bft) NW 10.2 C 12.4 C
07.06.2002 11:00 12.7 C 84 % 1007.7 hPa 0.0 l/m 13.8 km/h (3 Bft) NW 10.1 C 12.7 C
07.06.2002 12:00 14.8 C 74 % 1007.7 hPa 0.0 l/m 19.2 km/h (3 Bft) NW 10.1 C 14.8 C
07.06.2002 13:00 15.2 C 70 % 1008.6 hPa 0.0 l/m 17.8 km/h (3 Bft) NW 9.7 C 15.2 C
07.06.2002 14:00 15.8 C 65 % 1008.7 hPa 0.0 l/m 20.2 km/h (4 Bft) NW 9.2 C 15.8 C
07.06.2002 15:00 16.1 C 63 % 1008.1 hPa 0.0 l/m 13.8 km/h (3 Bft) NW 9.0 C 16.1 C
07.06.2002 16:00 17.2 C 61 % 1007.7 hPa 0.0 l/m 7.0 km/h (2 Bft) W-NW 9.6 C 17.2 C
07.06.2002 17:00 17.9 C 55 % 1007.7 hPa 0.0 l/m 9.7 km/h (2 Bft) NW 8.8 C 17.9 C
07.06.2002 18:00 17.1 C 57 % 1007.7 hPa 0.0 l/m 8.5 km/h (2 Bft) NW 8.6 C 17.1 C
07.06.2002 19:00 16.2 C 63 % 1007.7 hPa 0.0 l/m 1.5 km/h (1 Bft) W-SW 9.0 C 16.2 C
07.06.2002 20:00 15.8 C 67 % 1008.1 hPa 0.0 l/m 0.0 km/h (0 Bft) N 9.8 C 15.8 C
07.06.2002 21:00 15.0 C 73 % 1008.7 hPa 0.0 l/m 2.0 km/h (1 Bft) SO 10.2 C 15.0 C
07.06.2002 22:00 13.7 C 83 % 1008.7 hPa 0.0 l/m 3.3 km/h (1 Bft) SO 10.9 C 13.7 C
07.06.2002 23:00 13.4 C 88 % 1009.0 hPa 0.0 l/m 0.4 km/h (0 Bft) O-SO 11.3 C 13.4 C
08.06.2002 00:00 12.8 C 90 % 1009.7 hPa 0.0 l/m 0.7 km/h (0 Bft) O-SO 11.2 C 12.8 C
08.06.2002 01:00 12.7 C 91 % 1009.7 hPa 0.0 l/m 0.7 km/h (0 Bft) O-SO 11.2 C 12.7 C
08.06.2002 02:00 12.5 C 92 % 1009.2 hPa 0.0 l/m 0.1 km/h (0 Bft) O-SO 11.2 C 12.5 C
08.06.2002 03:00 12.3 C 94 % 1008.7 hPa 0.0 l/m 0.0 km/h (0 Bft) N 11.3 C 12.3 C
08.06.2002 04:00 11.1 C 97 % 1008.7 hPa 0.0 l/m 0.8 km/h (0 Bft) O-SO 10.6 C 11.1 C
08.06.2002 05:00 11.0 C 98 % 1008.7 hPa 0.0 l/m 0.2 km/h (0 Bft) N 10.7 C 11.0 C
08.06.2002 06:00 11.6 C 97 % 1008.7 hPa 0.0 l/m 0.0 km/h (0 Bft) N 11.2 C 11.6 C
08.06.2002 07:00 12.3 C 93 % 1008.7 hPa 0.0 l/m 0.4 km/h (0 Bft) NW 11.2 C 12.3 C
08.06.2002 08:00 13.2 C 88 % 1008.7 hPa 0.0 l/m 0.0 km/h (0 Bft) N 11.3 C 13.2 C
08.06.2002 09:00 13.8 C 85 % 1008.7 hPa 0.0 l/m 0.1 km/h (0 Bft) N 11.3 C 13.8 C
08.06.2002 10:00 14.8 C 80 % 1008.7 hPa 0.0 l/m 1.4 km/h (1 Bft) NW 11.3 C 14.8 C
08.06.2002 11:00 16.7 C 70 % 1008.7 hPa 0.0 l/m 1.4 km/h (1 Bft) W-NW 11.1 C 16.7 C
08.06.2002 12:00 17.9 C 63 % 1008.4 hPa 0.0 l/m 0.7 km/h (0 Bft) SO 10.9 C 17.9 C
08.06.2002 13:00 19.3 C 59 % 1007.8 hPa 0.0 l/m 2.7 km/h (1 Bft) O-SO 11.0 C 19.3 C
08.06.2002 14:00 19.1 C 58 % 1007.7 hPa 0.0 l/m 2.0 km/h (1 Bft) O-SO 10.7 C 19.1 C
08.06.2002 15:00 17.7 C 67 % 1007.7 hPa 0.0 l/m 0.1 km/h (0 Bft) N 11.4 C 17.7 C
08.06.2002 16:00 17.6 C 66 % 1007.7 hPa 0.0 l/m 2.2 km/h (1 Bft) NW 11.2 C 17.6 C
08.06.2002 17:00 17.5 C 66 % 1007.7 hPa 0.0 l/m 2.9 km/h (1 Bft) NW 10.9 C 17.5 C
08.06.2002 18:00 16.7 C 67 % 1007.7 hPa 0.0 l/m 0.7 km/h (0 Bft) NW 10.4 C 16.7 C
08.06.2002 19:00 15.7 C 74 % 1007.7 hPa 0.0 l/m 0.6 km/h (0 Bft) NW 11.1 C 15.7 C
08.06.2002 20:00 15.1 C 78 % 1007.7 hPa 0.0 l/m 0.3 km/h (0 Bft) NW 11.3 C 15.1 C
08.06.2002 21:00 14.3 C 88 % 1007.7 hPa 0.0 l/m 0.0 km/h (0 Bft) N 12.3 C 14.3 C
08.06.2002 22:00 13.9 C 87 % 1008.5 hPa 0.0 l/m 0.0 km/h (0 Bft) N 11.8 C 13.9 C
08.06.2002 23:00 13.8 C 88 % 1008.7 hPa 0.0 l/m 0.0 km/h (0 Bft) N 11.8 C 13.8 C
09.06.2002 00:00 13.6 C 89 % 1008.7 hPa 0.0 l/m 0.1 km/h (0 Bft) N 11.9 C 13.6 C
09.06.2002 01:00 13.5 C 93 % 1008.7 hPa 0.0 l/m 0.0 km/h (0 Bft) N 12.5 C 13.5 C
09.06.2002 02:00 13.3 C 95 % 1008.7 hPa 0.0 l/m 0.0 km/h (0 Bft) N 12.5 C 13.3 C
09.06.2002 03:00 12.9 C 96 % 1008.5 hPa 0.0 l/m 0.1 km/h (0 Bft) N 12.3 C 12.9 C
09.06.2002 04:00 12.7 C 97 % 1007.9 hPa 0.0 l/m 0.0 km/h (0 Bft) N 12.3 C 12.7 C
09.06.2002 05:00 12.6 C 98 % 1008.6 hPa 0.3 l/m 0.1 km/h (0 Bft) N 12.4 C 12.6 C
09.06.2002 06:00 12.7 C 99 % 1008.7 hPa 0.0 l/m 0.0 km/h (0 Bft) N 12.5 C 12.7 C
09.06.2002 07:00 13.0 C 99 % 1008.7 hPa 0.0 l/m 0.0 km/h (0 Bft) N 12.7 C 13.0 C
09.06.2002 08:00 13.7 C 95 % 1008.7 hPa 0.0 l/m 0.0 km/h (0 Bft) N 12.8 C 13.7 C
09.06.2002 09:00 14.7 C 86 % 1009.3 hPa 0.0 l/m 0.1 km/h (0 Bft) N 12.4 C 14.7 C
09.06.2002 10:00 15.6 C 79 % 1009.3 hPa 0.0 l/m 0.1 km/h (0 Bft) N 12.0 C 15.6 C
09.06.2002 11:00 15.8 C 78 % 1009.6 hPa 0.0 l/m 0.2 km/h (0 Bft) W-NW 12.0 C 15.8 C
09.06.2002 12:00 15.2 C 85 % 1009.7 hPa 0.6 l/m 0.1 km/h (0 Bft) N 12.8 C 15.2 C
09.06.2002 13:00 14.8 C 94 % 1009.7 hPa 3.0 l/m 0.6 km/h (0 Bft) NW 13.8 C 14.8 C
09.06.2002 14:00 15.9 C 83 % 1009.7 hPa 0.0 l/m 0.9 km/h (0 Bft) NW 12.9 C 15.9 C
09.06.2002 15:00 16.8 C 80 % 1009.6 hPa 0.0 l/m 7.2 km/h (2 Bft) NW 13.3 C 16.8 C
09.06.2002 16:00 16.1 C 79 % 1008.9 hPa 0.0 l/m 3.5 km/h (1 Bft) NW 12.4 C 16.1 C
09.06.2002 17:00 16.2 C 77 % 1008.7 hPa 0.0 l/m 1.8 km/h (1 Bft) NW 12.1 C 16.2 C
09.06.2002 18:00 15.8 C 80 % 1009.3 hPa 0.0 l/m 4.0 km/h (1 Bft) NW 12.3 C 15.8 C
09.06.2002 19:00 14.6 C 88 % 1009.7 hPa 0.3 l/m 1.2 km/h (1 Bft) NW 12.7 C 14.6 C
09.06.2002 20:00 14.2 C 95 % 1009.7 hPa 0.0 l/m 0.0 km/h (0 Bft) N 13.5 C 14.2 C
09.06.2002 21:00 14.0 C 98 % 1009.9 hPa 0.0 l/m 0.0 km/h (0 Bft) N 13.6 C 14.0 C
09.06.2002 22:00 13.8 C 99 % 1010.8 hPa 0.3 l/m 0.2 km/h (0 Bft) O-SO 13.7 C 13.8 C
09.06.2002 23:00 13.6 C 99 % 1010.8 hPa 0.6 l/m 0.1 km/h (0 Bft) N 13.4 C 13.6 C
Min-Datum _ 03.06.02 06.06.02 05.06.02 - 03.06.02 - 03.06.02 03.06.02
_ Min-Zeit 05:44 15:23 07:25 - 00:02 - 05:44 05:17
Minimum _ 9.0 C 44 % 995.2 hPa - 0.0 km/h (0 Bft) - 6.8 C 7.7 C
Max-Datum _ 04.06.02 03.06.02 03.06.02 04.06.02 05.06.02 - 04.06.02 04.06.02
_ Max-Zeit 15:09 21:11 00:00 03:15 15:34 - 18:30 15:09
Maximum _ 27.0 C 100 % 1015.9 hPa 5.7 l/m 43.4 km/h
NW (6 Bft)
- 18.3 C 27.0 C
Durchschnitt _ 15.9 C 82 % 1006.4 hPa #21.9 l/m 4.0 km/h (1 Bft) NW 12.5 C 15.9 C

Durchschnitt Minimum Temp.15.2 C
Durchschnitt Maximum Temp.16.6 C
© Kaiko 2002